createdAt,value
2016-11-13T00:00:50.454Z,989.46
2016-11-13T00:01:59.157Z,989.48
2016-11-13T00:03:07.847Z,989.42
2016-11-13T00:04:16.540Z,989.46
2016-11-13T00:05:25.228Z,989.41
2016-11-13T00:06:33.917Z,989.38
2016-11-13T00:07:42.605Z,989.41
2016-11-13T00:08:51.305Z,989.41
2016-11-13T00:09:59.999Z,989.4
2016-11-13T00:11:08.700Z,989.41
2016-11-13T00:12:17.386Z,989.38
2016-11-13T00:13:26.075Z,989.37
2016-11-13T00:14:34.795Z,989.41
2016-11-13T00:15:43.487Z,989.35
2016-11-13T00:16:52.176Z,989.38
2016-11-13T00:18:00.867Z,989.36
2016-11-13T00:19:09.867Z,989.34
2016-11-13T00:20:18.554Z,989.32
2016-11-13T00:21:27.246Z,989.33
2016-11-13T00:22:35.934Z,989.33
2016-11-13T00:23:44.644Z,989.32
2016-11-13T00:24:53.335Z,989.34
2016-11-13T00:26:02.024Z,989.31
2016-11-13T00:27:10.711Z,989.34
2016-11-13T00:28:19.402Z,989.35
2016-11-13T00:29:28.091Z,989.3
2016-11-13T00:30:36.786Z,989.34
2016-11-13T00:31:45.472Z,989.35
2016-11-13T00:32:54.169Z,989.3
2016-11-13T00:34:02.855Z,989.32
2016-11-13T00:35:11.546Z,989.37
2016-11-13T00:36:20.231Z,989.32
2016-11-13T00:37:28.918Z,989.35
2016-11-13T00:38:37.610Z,989.29
2016-11-13T00:39:46.294Z,989.36
2016-11-13T00:40:54.986Z,989.27
2016-11-13T00:42:03.674Z,989.27
2016-11-13T00:43:12.363Z,989.29
2016-11-13T00:44:21.052Z,989.27
2016-11-13T00:45:29.742Z,989.3
2016-11-13T00:46:38.432Z,989.34
2016-11-13T00:47:47.121Z,989.27
2016-11-13T00:48:55.811Z,989.27
2016-11-13T00:50:04.547Z,989.28
2016-11-13T00:51:13.243Z,989.24
2016-11-13T00:52:21.924Z,989.2
2016-11-13T00:53:30.611Z,989.26
2016-11-13T00:54:39.295Z,989.29
2016-11-13T00:55:47.987Z,989.32
2016-11-13T00:56:56.724Z,989.25
2016-11-13T00:58:05.413Z,989.3
2016-11-13T00:59:14.109Z,989.27
2016-11-13T01:00:22.801Z,989.26
2016-11-13T01:01:31.492Z,989.24
2016-11-13T01:02:40.183Z,989.24
2016-11-13T01:03:48.869Z,989.26
2016-11-13T01:04:57.574Z,989.26
2016-11-13T01:06:06.264Z,989.21
2016-11-13T01:07:14.957Z,989.18
2016-11-13T01:08:23.652Z,989.24
2016-11-13T01:09:32.345Z,989.22
2016-11-13T01:10:41.075Z,989.19
2016-11-13T01:11:49.765Z,989.22
2016-11-13T01:12:58.452Z,989.24
2016-11-13T01:14:07.145Z,989.25
2016-11-13T01:15:16.145Z,989.19
2016-11-13T01:16:24.833Z,989.22
2016-11-13T01:17:33.552Z,989.18
2016-11-13T01:18:42.247Z,989.21
2016-11-13T01:19:50.940Z,989.18
2016-11-13T01:20:59.636Z,989.17
2016-11-13T01:22:08.671Z,989.24
2016-11-13T01:23:17.358Z,989.21
2016-11-13T01:24:26.049Z,989.22
2016-11-13T01:25:34.746Z,989.24
2016-11-13T01:26:43.433Z,989.23
2016-11-13T01:27:52.120Z,989.21
2016-11-13T01:29:00.807Z,989.25
2016-11-13T01:30:09.526Z,989.2
2016-11-13T01:31:18.222Z,989.24
2016-11-13T01:32:27.226Z,989.26
2016-11-13T01:33:35.925Z,989.18
2016-11-13T01:34:44.614Z,989.18
2016-11-13T01:35:53.304Z,989.24
2016-11-13T01:37:02.029Z,989.14
2016-11-13T01:38:10.718Z,989.22
2016-11-13T01:39:19.409Z,989.17
2016-11-13T01:40:28.100Z,989.17
2016-11-13T01:41:36.794Z,989.18
2016-11-13T01:42:45.481Z,989.22
2016-11-13T01:43:54.170Z,989.22
2016-11-13T01:45:02.859Z,989.19
2016-11-13T01:46:11.551Z,989.23
2016-11-13T01:47:20.562Z,989.27
2016-11-13T01:48:29.287Z,989.27
2016-11-13T01:49:37.978Z,989.26
2016-11-13T01:50:46.668Z,989.26
2016-11-13T01:51:55.358Z,989.23
2016-11-13T01:53:04.048Z,989.19
2016-11-13T01:54:12.733Z,989.16
2016-11-13T01:55:21.456Z,989.21
2016-11-13T01:56:30.147Z,989.2
2016-11-13T01:57:38.843Z,989.18
2016-11-13T01:58:47.531Z,989.19
2016-11-13T01:59:56.252Z,989.18
2016-11-13T02:01:04.939Z,989.21
2016-11-13T02:02:13.629Z,989.24
2016-11-13T02:03:22.323Z,989.25
2016-11-13T02:04:31.123Z,989.21
2016-11-13T02:05:39.813Z,989.23
2016-11-13T02:06:48.520Z,989.22
2016-11-13T02:07:57.210Z,989.24
2016-11-13T02:09:05.897Z,989.18
2016-11-13T02:10:14.591Z,989.25
2016-11-13T02:11:23.278Z,989.23
2016-11-13T02:12:32.001Z,989.21
2016-11-13T02:13:40.690Z,989.28
2016-11-13T02:14:49.382Z,989.2
2016-11-13T02:15:58.108Z,989.18
2016-11-13T02:17:06.796Z,989.18
2016-11-13T02:18:15.490Z,989.2
2016-11-13T02:19:24.188Z,989.22
2016-11-13T02:20:32.875Z,989.23
2016-11-13T02:21:41.562Z,989.22
2016-11-13T02:22:50.254Z,989.22
2016-11-13T02:23:58.948Z,989.24
2016-11-13T02:25:07.635Z,989.21
2016-11-13T02:26:16.322Z,989.21
2016-11-13T02:27:25.011Z,989.23
2016-11-13T02:28:33.696Z,989.24
2016-11-13T02:29:42.699Z,989.22
2016-11-13T02:30:51.418Z,989.23
2016-11-13T02:32:00.109Z,989.23
2016-11-13T02:33:08.799Z,989.24
2016-11-13T02:34:17.487Z,989.26
2016-11-13T02:35:26.180Z,989.26
2016-11-13T02:36:34.865Z,989.25
2016-11-13T02:37:43.558Z,989.27
2016-11-13T02:38:52.251Z,989.23
2016-11-13T02:40:00.980Z,989.24
2016-11-13T02:41:09.669Z,989.27
2016-11-13T02:42:18.357Z,989.29
2016-11-13T02:43:27.045Z,989.3
2016-11-13T02:44:35.745Z,989.26
2016-11-13T02:45:44.452Z,989.31
2016-11-13T02:46:53.180Z,989.32
2016-11-13T02:48:01.870Z,989.3
2016-11-13T02:49:10.553Z,989.31
2016-11-13T02:50:19.240Z,989.27
2016-11-13T02:51:27.964Z,989.25
2016-11-13T02:52:36.649Z,989.26
2016-11-13T02:53:45.351Z,989.3
2016-11-13T02:54:54.051Z,989.3
2016-11-13T02:56:02.740Z,989.26
2016-11-13T02:57:11.432Z,989.29
2016-11-13T02:58:20.122Z,989.3
2016-11-13T02:59:28.812Z,989.29
2016-11-13T03:00:37.499Z,989.31
2016-11-13T03:01:46.188Z,989.3
2016-11-13T03:02:54.881Z,989.33
2016-11-13T03:04:03.570Z,989.26
2016-11-13T03:05:12.297Z,989.27
2016-11-13T03:06:20.984Z,989.28
2016-11-13T03:07:29.822Z,989.27
2016-11-13T03:08:38.508Z,989.28
2016-11-13T03:09:47.198Z,989.29
2016-11-13T03:10:55.891Z,989.31
2016-11-13T03:12:04.579Z,989.27
2016-11-13T03:13:13.268Z,989.27
2016-11-13T03:14:21.957Z,989.22
2016-11-13T03:15:30.651Z,989.24
2016-11-13T03:16:39.382Z,989.24
2016-11-13T03:17:48.068Z,989.25
2016-11-13T03:18:57.114Z,989.31
2016-11-13T03:20:05.806Z,989.29
2016-11-13T03:21:14.494Z,989.33
2016-11-13T03:22:23.178Z,989.33
2016-11-13T03:23:31.866Z,989.27
2016-11-13T03:24:40.553Z,989.29
2016-11-13T03:25:49.248Z,989.32
2016-11-13T03:26:57.939Z,989.33
2016-11-13T03:28:06.629Z,989.28
2016-11-13T03:29:15.324Z,989.32
2016-11-13T03:30:24.011Z,989.26
2016-11-13T03:31:32.701Z,989.31
2016-11-13T03:32:41.390Z,989.33
2016-11-13T03:33:50.081Z,989.29
2016-11-13T03:34:58.783Z,989.29
2016-11-13T03:36:07.470Z,989.35
2016-11-13T03:37:16.173Z,989.31
2016-11-13T03:38:24.860Z,989.39
2016-11-13T03:39:33.546Z,989.38
2016-11-13T03:40:42.236Z,989.37
2016-11-13T03:41:50.960Z,989.38
2016-11-13T03:42:59.646Z,989.39
2016-11-13T03:44:08.334Z,989.41
2016-11-13T03:45:17.024Z,989.46
2016-11-13T03:46:25.712Z,989.46
2016-11-13T03:47:34.401Z,989.47
2016-11-13T03:48:43.099Z,989.45
2016-11-13T03:49:51.789Z,989.46
2016-11-13T03:51:00.514Z,989.46
2016-11-13T03:52:09.202Z,989.47
2016-11-13T03:53:17.897Z,989.44
2016-11-13T03:54:26.584Z,989.46
2016-11-13T03:55:35.302Z,989.46
2016-11-13T03:56:44.004Z,989.45
2016-11-13T03:57:52.698Z,989.44
2016-11-13T03:59:01.387Z,989.48
2016-11-13T04:00:10.077Z,989.43
2016-11-13T04:01:18.760Z,989.42
2016-11-13T04:02:27.449Z,989.4
2016-11-13T04:03:36.141Z,989.43
2016-11-13T04:04:44.826Z,989.4
2016-11-13T04:05:53.517Z,989.38
2016-11-13T04:07:02.203Z,989.36
2016-11-13T04:08:10.890Z,989.39
2016-11-13T04:09:19.581Z,989.43
2016-11-13T04:10:28.271Z,989.4
2016-11-13T04:11:36.966Z,989.41
2016-11-13T04:12:45.688Z,989.36
2016-11-13T04:13:54.411Z,989.42
2016-11-13T04:15:03.101Z,989.39
2016-11-13T04:16:11.788Z,989.47
2016-11-13T04:17:20.478Z,989.51
2016-11-13T04:18:29.169Z,989.45
2016-11-13T04:19:37.889Z,989.49
2016-11-13T04:20:46.579Z,989.47
2016-11-13T04:21:55.268Z,989.47
2016-11-13T04:23:03.959Z,989.51
2016-11-13T04:24:12.651Z,989.5
2016-11-13T04:25:21.338Z,989.54
2016-11-13T04:26:30.025Z,989.57
2016-11-13T04:27:38.743Z,989.59
2016-11-13T04:28:47.433Z,989.55
2016-11-13T04:29:56.120Z,989.57
2016-11-13T04:31:04.806Z,989.65
2016-11-13T04:32:13.492Z,989.61
2016-11-13T04:33:22.183Z,989.63
2016-11-13T04:34:30.868Z,989.63
2016-11-13T04:35:39.555Z,989.62
2016-11-13T04:36:48.242Z,989.63
2016-11-13T04:37:56.931Z,989.62
2016-11-13T04:39:05.618Z,989.63
2016-11-13T04:40:14.341Z,989.62
2016-11-13T04:41:23.032Z,989.68
2016-11-13T04:42:31.726Z,989.65
2016-11-13T04:43:40.416Z,989.63
2016-11-13T04:44:49.103Z,989.71
2016-11-13T04:45:57.792Z,989.65
2016-11-13T04:47:06.488Z,989.67
2016-11-13T04:48:15.172Z,989.71
2016-11-13T04:49:23.861Z,989.7
2016-11-13T04:50:32.551Z,989.72
2016-11-13T04:51:41.234Z,989.69
2016-11-13T04:52:49.923Z,989.68
2016-11-13T04:53:58.614Z,989.71
2016-11-13T04:55:07.302Z,989.72
2016-11-13T04:56:15.990Z,989.78
2016-11-13T04:57:24.680Z,989.74
2016-11-13T04:58:33.373Z,989.74
2016-11-13T04:59:42.062Z,989.72
2016-11-13T05:00:50.747Z,989.78
2016-11-13T05:01:59.437Z,989.74
2016-11-13T05:03:08.128Z,989.74
2016-11-13T05:04:16.819Z,989.77
2016-11-13T05:05:25.508Z,989.8
2016-11-13T05:06:34.228Z,989.77
2016-11-13T05:07:42.916Z,989.79
2016-11-13T05:08:51.604Z,989.8
2016-11-13T05:10:00.302Z,989.77
2016-11-13T05:11:08.991Z,989.78
2016-11-13T05:12:17.688Z,989.79
2016-11-13T05:13:26.372Z,989.73
2016-11-13T05:14:35.060Z,989.75
2016-11-13T05:15:43.759Z,989.79
2016-11-13T05:16:52.456Z,989.76
2016-11-13T05:18:01.458Z,989.74
2016-11-13T05:19:10.147Z,989.8
2016-11-13T05:20:18.840Z,989.76
2016-11-13T05:21:27.532Z,989.81
2016-11-13T05:22:36.220Z,989.84
2016-11-13T05:23:44.907Z,989.83
2016-11-13T05:24:53.626Z,989.82
2016-11-13T05:26:02.319Z,989.87
2016-11-13T05:27:11.014Z,989.83
2016-11-13T05:28:19.702Z,989.81
2016-11-13T05:29:28.394Z,989.77
2016-11-13T05:30:37.088Z,989.84
2016-11-13T05:31:45.776Z,989.82
2016-11-13T05:32:54.477Z,989.84
2016-11-13T05:34:03.203Z,989.83
2016-11-13T05:35:11.894Z,989.84
2016-11-13T05:36:20.581Z,989.84
2016-11-13T05:37:29.270Z,989.84
2016-11-13T05:38:37.958Z,989.81
2016-11-13T05:39:46.651Z,989.83
2016-11-13T05:40:55.337Z,989.91
2016-11-13T05:42:04.028Z,989.86
2016-11-13T05:43:12.709Z,989.88
2016-11-13T05:44:21.400Z,989.88
2016-11-13T05:45:30.098Z,989.86
2016-11-13T05:46:38.799Z,989.86
2016-11-13T05:47:47.495Z,989.88
2016-11-13T05:48:56.182Z,989.83
2016-11-13T05:50:04.870Z,989.88
2016-11-13T05:51:13.558Z,989.9
2016-11-13T05:52:22.246Z,989.89
2016-11-13T05:53:30.950Z,989.9
2016-11-13T05:54:39.638Z,989.89
2016-11-13T05:55:48.368Z,989.9
2016-11-13T05:56:57.063Z,989.91
2016-11-13T05:58:05.754Z,989.95
2016-11-13T05:59:14.447Z,989.95
2016-11-13T06:00:23.143Z,989.98
2016-11-13T06:01:31.861Z,989.99
2016-11-13T06:02:40.861Z,989.99
2016-11-13T06:03:49.552Z,989.96
2016-11-13T06:04:58.244Z,989.96
2016-11-13T06:06:06.937Z,990
2016-11-13T06:07:15.626Z,990
2016-11-13T06:08:24.319Z,989.97
2016-11-13T06:09:33.014Z,990.02
2016-11-13T06:10:41.702Z,990
2016-11-13T06:11:50.396Z,990.07
2016-11-13T06:12:59.085Z,990.05
2016-11-13T06:14:07.776Z,990.05
2016-11-13T06:15:16.463Z,990.06
2016-11-13T06:16:25.151Z,990.08
2016-11-13T06:17:33.843Z,990.05
2016-11-13T06:18:42.528Z,990.04
2016-11-13T06:19:51.219Z,990.04
2016-11-13T06:20:59.906Z,990.07
2016-11-13T06:22:08.594Z,990.05
2016-11-13T06:23:17.282Z,990.04
2016-11-13T06:24:25.969Z,990.06
2016-11-13T06:25:34.669Z,990.08
2016-11-13T06:26:43.355Z,990.13
2016-11-13T06:27:52.041Z,990.12
2016-11-13T06:29:00.727Z,990.06
2016-11-13T06:30:09.417Z,990.14
2016-11-13T06:31:18.111Z,990.15
2016-11-13T06:32:26.798Z,990.16
2016-11-13T06:33:35.483Z,990.12
2016-11-13T06:34:44.175Z,990.15
2016-11-13T06:35:52.865Z,990.16
2016-11-13T06:37:01.548Z,990.17
2016-11-13T06:38:10.236Z,990.22
2016-11-13T06:39:18.924Z,990.25
2016-11-13T06:40:27.610Z,990.22
2016-11-13T06:41:36.292Z,990.21
2016-11-13T06:42:44.983Z,990.28
2016-11-13T06:43:53.677Z,990.33
2016-11-13T06:45:02.368Z,990.31
2016-11-13T06:46:11.055Z,990.34
2016-11-13T06:47:19.746Z,990.36
2016-11-13T06:48:28.445Z,990.35
2016-11-13T06:49:37.134Z,990.37
2016-11-13T06:50:45.826Z,990.41
2016-11-13T06:51:54.516Z,990.4
2016-11-13T06:53:03.202Z,990.42
2016-11-13T06:54:11.925Z,990.42
2016-11-13T06:55:20.610Z,990.42
2016-11-13T06:56:29.296Z,990.41
2016-11-13T06:57:37.994Z,990.41
2016-11-13T06:58:46.682Z,990.43
2016-11-13T06:59:55.374Z,990.47
2016-11-13T07:01:04.094Z,990.45
2016-11-13T07:02:12.787Z,990.46
2016-11-13T07:03:21.472Z,990.46
2016-11-13T07:04:30.168Z,990.52
2016-11-13T07:05:38.859Z,990.45
2016-11-13T07:06:47.551Z,990.48
2016-11-13T07:07:56.241Z,990.49
2016-11-13T07:09:04.925Z,990.5
2016-11-13T07:10:13.612Z,990.51
2016-11-13T07:11:22.299Z,990.54
2016-11-13T07:12:30.993Z,990.55
2016-11-13T07:13:39.687Z,990.59
2016-11-13T07:14:48.376Z,990.64
2016-11-13T07:15:57.070Z,990.63
2016-11-13T07:17:05.756Z,990.65
2016-11-13T07:18:14.476Z,990.66
2016-11-13T07:19:23.168Z,990.72
2016-11-13T07:20:31.857Z,990.67
2016-11-13T07:21:40.540Z,990.72
2016-11-13T07:22:49.226Z,990.73
2016-11-13T07:23:57.914Z,990.71
2016-11-13T07:25:06.607Z,990.75
2016-11-13T07:26:15.294Z,990.72
2016-11-13T07:27:23.983Z,990.77
2016-11-13T07:28:32.675Z,990.78
2016-11-13T07:29:41.364Z,990.77
2016-11-13T07:30:50.051Z,990.75
2016-11-13T07:31:58.738Z,990.76
2016-11-13T07:33:07.423Z,990.77
2016-11-13T07:34:16.109Z,990.77
2016-11-13T07:35:24.799Z,990.81
2016-11-13T07:36:33.488Z,990.74
2016-11-13T07:37:42.172Z,990.78
2016-11-13T07:38:50.861Z,990.79
2016-11-13T07:39:59.555Z,990.82
2016-11-13T07:41:08.241Z,990.74
2016-11-13T07:42:16.930Z,990.75
2016-11-13T07:43:25.614Z,990.77
2016-11-13T07:44:34.929Z,990.81
2016-11-13T07:45:43.619Z,990.8
2016-11-13T07:46:52.304Z,990.83
2016-11-13T07:48:01.322Z,990.84
2016-11-13T07:49:10.015Z,990.84
2016-11-13T07:50:18.709Z,990.9
2016-11-13T07:51:27.401Z,990.86
2016-11-13T07:52:36.089Z,990.88
2016-11-13T07:53:44.788Z,990.88
2016-11-13T07:54:53.476Z,990.87
2016-11-13T07:56:02.160Z,990.92
2016-11-13T07:57:10.849Z,990.87
2016-11-13T07:58:19.537Z,990.91
2016-11-13T07:59:28.227Z,990.9
2016-11-13T08:00:36.919Z,990.9
2016-11-13T08:01:45.617Z,990.93
2016-11-13T08:02:54.316Z,990.93
2016-11-13T08:04:03.006Z,990.97
2016-11-13T08:05:12.056Z,990.94
2016-11-13T08:06:20.741Z,990.98
2016-11-13T08:07:29.432Z,990.98
2016-11-13T08:08:38.126Z,991
2016-11-13T08:09:46.812Z,990.98
2016-11-13T08:10:55.501Z,991.05
2016-11-13T08:12:04.197Z,991.08
2016-11-13T08:13:12.886Z,991.08
2016-11-13T08:14:21.579Z,991.1
2016-11-13T08:15:30.270Z,991.12
2016-11-13T08:16:38.961Z,991.11
2016-11-13T08:17:47.647Z,991.09
2016-11-13T08:18:56.334Z,991.16
2016-11-13T08:20:05.023Z,991.18
2016-11-13T08:21:13.716Z,991.15
2016-11-13T08:22:22.417Z,991.12
2016-11-13T08:23:31.428Z,991.15
2016-11-13T08:24:40.120Z,991.15
2016-11-13T08:25:48.804Z,991.19
2016-11-13T08:26:57.495Z,991.17
2016-11-13T08:28:06.182Z,991.19
2016-11-13T08:29:14.871Z,991.2
2016-11-13T08:30:23.554Z,991.23
2016-11-13T08:31:32.247Z,991.23
2016-11-13T08:32:40.949Z,991.22
2016-11-13T08:33:49.639Z,991.22
2016-11-13T08:34:58.325Z,991.28
2016-11-13T08:36:07.016Z,991.26
2016-11-13T08:37:15.701Z,991.24
2016-11-13T08:38:24.389Z,991.24
2016-11-13T08:39:33.081Z,991.26
2016-11-13T08:40:41.773Z,991.24
2016-11-13T08:41:50.465Z,991.28
2016-11-13T08:42:59.148Z,991.29
2016-11-13T08:44:07.870Z,991.3
2016-11-13T08:45:16.559Z,991.34
2016-11-13T08:46:25.250Z,991.36
2016-11-13T08:47:33.935Z,991.36
2016-11-13T08:48:42.622Z,991.39
2016-11-13T08:49:51.309Z,991.43
2016-11-13T08:51:00.047Z,991.41
2016-11-13T08:52:08.741Z,991.43
2016-11-13T08:53:17.429Z,991.42
2016-11-13T08:54:26.118Z,991.41
2016-11-13T08:55:34.858Z,991.42
2016-11-13T08:56:43.558Z,991.4
2016-11-13T08:57:52.251Z,991.39
2016-11-13T08:59:00.948Z,991.42
2016-11-13T09:00:09.641Z,991.45
2016-11-13T09:01:18.329Z,991.42
2016-11-13T09:02:27.019Z,991.41
2016-11-13T09:03:35.713Z,991.39
2016-11-13T09:04:44.402Z,991.44
2016-11-13T09:05:53.099Z,991.42
2016-11-13T09:07:01.784Z,991.45
2016-11-13T09:08:10.489Z,991.41
2016-11-13T09:09:19.179Z,991.46
2016-11-13T09:10:27.871Z,991.45
2016-11-13T09:11:36.561Z,991.45
2016-11-13T09:12:45.249Z,991.48
2016-11-13T09:13:53.937Z,991.49
2016-11-13T09:15:02.670Z,991.47
2016-11-13T09:16:11.368Z,991.49
2016-11-13T09:17:20.064Z,991.49
2016-11-13T09:18:28.753Z,991.5
2016-11-13T09:19:37.444Z,991.49
2016-11-13T09:20:46.131Z,991.49
2016-11-13T09:21:54.824Z,991.53
2016-11-13T09:23:03.510Z,991.51
2016-11-13T09:24:12.515Z,991.51
2016-11-13T09:25:21.215Z,991.51
2016-11-13T09:26:29.938Z,991.53
2016-11-13T09:27:38.942Z,991.55
2016-11-13T09:28:47.640Z,991.54
2016-11-13T09:29:56.332Z,991.58
2016-11-13T09:31:05.030Z,991.57
2016-11-13T09:32:13.723Z,991.57
2016-11-13T09:33:22.426Z,991.58
2016-11-13T09:34:31.116Z,991.6
2016-11-13T09:35:39.800Z,991.63
2016-11-13T09:36:48.488Z,991.6
2016-11-13T09:37:57.178Z,991.62
2016-11-13T09:39:05.876Z,991.67
2016-11-13T09:40:14.564Z,991.67
2016-11-13T09:41:23.261Z,991.68
2016-11-13T09:42:32.269Z,991.72
2016-11-13T09:43:40.959Z,991.71
2016-11-13T09:44:49.655Z,991.69
2016-11-13T09:45:58.348Z,991.71
2016-11-13T09:47:07.035Z,991.66
2016-11-13T09:48:15.724Z,991.7
2016-11-13T09:49:24.733Z,991.73
2016-11-13T09:50:33.430Z,991.74
2016-11-13T09:51:42.123Z,991.73
2016-11-13T09:52:50.847Z,991.71
2016-11-13T09:53:59.572Z,991.75
2016-11-13T09:55:08.265Z,991.75
2016-11-13T09:56:16.961Z,991.78
2016-11-13T09:57:25.653Z,991.77
2016-11-13T09:58:34.339Z,991.79
2016-11-13T09:59:43.027Z,991.79
2016-11-13T10:00:51.716Z,991.77
2016-11-13T10:02:00.408Z,991.72
2016-11-13T10:03:09.103Z,991.75
2016-11-13T10:04:18.103Z,991.74
2016-11-13T10:05:26.788Z,991.75
2016-11-13T10:06:35.477Z,991.82
2016-11-13T10:07:44.169Z,991.82
2016-11-13T10:09:24.937Z,991.87
2016-11-13T10:10:33.628Z,991.88
2016-11-13T10:11:42.311Z,991.87
2016-11-13T10:12:51.002Z,991.88
2016-11-13T10:13:59.691Z,991.89
2016-11-13T10:15:08.705Z,991.87
2016-11-13T10:16:17.416Z,991.86
2016-11-13T10:17:26.112Z,991.88
2016-11-13T10:18:34.809Z,991.87
2016-11-13T10:19:43.499Z,991.85
2016-11-13T10:20:52.190Z,991.91
2016-11-13T10:22:00.890Z,991.9
2016-11-13T10:23:09.584Z,991.92
2016-11-13T10:24:18.596Z,991.94
2016-11-13T10:25:27.287Z,991.95
2016-11-13T10:26:35.974Z,991.94
2016-11-13T10:27:44.664Z,992
2016-11-13T10:28:53.399Z,992.03
2016-11-13T10:30:02.123Z,992.02
2016-11-13T10:31:10.818Z,992.03
2016-11-13T10:32:19.514Z,992.04
2016-11-13T10:33:28.205Z,992.09
2016-11-13T10:34:36.897Z,992.1
2016-11-13T10:35:45.597Z,992.03
2016-11-13T10:36:54.322Z,992.09
2016-11-13T10:38:03.018Z,992.02
2016-11-13T10:39:11.713Z,992
2016-11-13T10:40:20.404Z,992
2016-11-13T10:41:29.094Z,992.04
2016-11-13T10:42:37.790Z,992.08
2016-11-13T10:43:46.489Z,992.07
2016-11-13T10:44:55.217Z,992.05
2016-11-13T10:46:03.910Z,992.01
2016-11-13T10:47:12.615Z,992.02
2016-11-13T10:48:21.308Z,992.07
2016-11-13T10:49:30.002Z,992.06
2016-11-13T10:50:38.695Z,992.11
2016-11-13T10:51:47.390Z,992.09
2016-11-13T10:52:56.088Z,992.12
2016-11-13T10:54:04.781Z,992.09
2016-11-13T10:55:13.473Z,992.09
2016-11-13T10:56:22.178Z,992.1
2016-11-13T10:57:30.873Z,992.13
2016-11-13T10:58:39.605Z,992.15
2016-11-13T10:59:48.302Z,992.13
2016-11-13T11:00:57.037Z,992.17
2016-11-13T11:02:05.733Z,992.16
2016-11-13T11:03:14.426Z,992.14
2016-11-13T11:04:23.125Z,992.19
2016-11-13T11:05:31.818Z,992.18
2016-11-13T11:06:40.515Z,992.17
2016-11-13T11:07:49.316Z,992.13
2016-11-13T11:08:58.010Z,992.13
2016-11-13T11:10:06.708Z,992.15
2016-11-13T11:11:15.403Z,992.16
2016-11-13T11:12:24.098Z,992.23
2016-11-13T11:13:32.792Z,992.19
2016-11-13T11:14:41.491Z,992.22
2016-11-13T11:15:50.187Z,992.26
2016-11-13T11:16:59.201Z,992.28
2016-11-13T11:18:07.901Z,992.25
2016-11-13T11:19:16.597Z,992.28
2016-11-13T11:20:25.288Z,992.25
2016-11-13T11:21:34.013Z,992.25
2016-11-13T11:22:42.711Z,992.25
2016-11-13T11:23:51.408Z,992.21
2016-11-13T11:25:00.137Z,992.25
2016-11-13T11:26:08.833Z,992.27
2016-11-13T11:27:17.528Z,992.31
2016-11-13T11:28:26.544Z,992.28
2016-11-13T11:29:35.233Z,992.29
2016-11-13T11:30:43.959Z,992.26
2016-11-13T11:31:52.968Z,992.23
2016-11-13T11:33:01.661Z,992.23
2016-11-13T11:34:10.667Z,992.18
2016-11-13T11:35:19.362Z,992.2
2016-11-13T11:36:28.056Z,992.16
2016-11-13T11:37:36.753Z,992.22
2016-11-13T11:38:45.486Z,992.23
2016-11-13T11:39:54.217Z,992.19
2016-11-13T11:41:02.913Z,992.22
2016-11-13T11:42:11.608Z,992.22
2016-11-13T11:43:20.328Z,992.26
2016-11-13T11:44:29.023Z,992.24
2016-11-13T11:45:37.716Z,992.19
2016-11-13T11:46:46.407Z,992.23
2016-11-13T11:47:55.109Z,992.21
2016-11-13T11:49:03.799Z,992.24
2016-11-13T11:50:12.527Z,992.22
2016-11-13T11:51:21.226Z,992.26
2016-11-13T11:52:29.930Z,992.24
2016-11-13T11:53:38.627Z,992.3
2016-11-13T11:54:47.637Z,992.27
2016-11-13T11:55:56.335Z,992.29
2016-11-13T11:57:05.026Z,992.25
2016-11-13T11:58:13.720Z,992.31
2016-11-13T11:59:22.738Z,992.3
2016-11-13T12:00:31.760Z,992.26
2016-11-13T12:01:40.449Z,992.27
2016-11-13T12:02:49.468Z,992.25
2016-11-13T12:03:58.158Z,992.29
2016-11-13T12:05:06.856Z,992.28
2016-11-13T12:06:15.546Z,992.31
2016-11-13T12:07:24.242Z,992.29
2016-11-13T12:08:32.941Z,992.31
2016-11-13T12:09:41.635Z,992.28
2016-11-13T12:10:50.339Z,992.25
2016-11-13T12:11:59.345Z,992.28
2016-11-13T12:13:08.056Z,992.28
2016-11-13T12:14:16.744Z,992.28
2016-11-13T12:15:25.435Z,992.3
2016-11-13T12:16:34.128Z,992.32
2016-11-13T12:17:42.824Z,992.33
2016-11-13T12:18:51.521Z,992.33
2016-11-13T12:20:00.558Z,992.33
2016-11-13T12:21:09.291Z,992.36
2016-11-13T12:22:17.989Z,992.35
2016-11-13T12:23:26.714Z,992.3
2016-11-13T12:24:35.413Z,992.35
2016-11-13T12:25:44.105Z,992.36
2016-11-13T12:26:52.796Z,992.32
2016-11-13T12:28:01.483Z,992.36
2016-11-13T12:29:10.489Z,992.39
2016-11-13T12:30:19.187Z,992.44
2016-11-13T12:31:27.891Z,992.41
2016-11-13T12:32:36.609Z,992.42
2016-11-13T12:33:45.302Z,992.4
2016-11-13T12:34:54.000Z,992.4
2016-11-13T12:36:03.045Z,992.36
2016-11-13T12:37:12.496Z,992.36
2016-11-13T12:38:21.184Z,992.37
2016-11-13T12:39:29.874Z,992.33
2016-11-13T12:40:38.597Z,992.29
2016-11-13T12:41:47.293Z,992.33
2016-11-13T12:42:55.984Z,992.28
2016-11-13T12:44:04.675Z,992.33
2016-11-13T12:45:13.373Z,992.31
2016-11-13T12:46:22.063Z,992.34
2016-11-13T12:47:30.756Z,992.4
2016-11-13T12:48:39.449Z,992.37
2016-11-13T12:49:48.141Z,992.38
2016-11-13T12:50:56.833Z,992.42
2016-11-13T12:52:05.528Z,992.43
2016-11-13T12:53:14.221Z,992.43
2016-11-13T12:54:23.236Z,992.43
2016-11-13T12:55:31.924Z,992.42
2016-11-13T12:56:40.623Z,992.44
2016-11-13T12:57:49.348Z,992.49
2016-11-13T12:58:58.038Z,992.51
2016-11-13T13:00:06.741Z,992.48
2016-11-13T13:01:15.458Z,992.54
2016-11-13T13:02:24.150Z,992.53
2016-11-13T13:03:32.844Z,992.54
2016-11-13T13:04:41.535Z,992.58
2016-11-13T13:05:50.233Z,992.53
2016-11-13T13:06:58.928Z,992.51
2016-11-13T13:08:07.633Z,992.48
2016-11-13T13:09:16.325Z,992.46
2016-11-13T13:10:25.022Z,992.52
2016-11-13T13:11:33.719Z,992.48
2016-11-13T13:12:42.414Z,992.52
2016-11-13T13:13:51.107Z,992.52
2016-11-13T13:14:59.798Z,992.56
2016-11-13T13:16:08.802Z,992.55
2016-11-13T13:17:17.501Z,992.58
2016-11-13T13:18:26.198Z,992.61
2016-11-13T13:19:34.888Z,992.59
2016-11-13T13:20:43.580Z,992.58
2016-11-13T13:21:52.264Z,992.61
2016-11-13T13:23:00.952Z,992.57
2016-11-13T13:24:09.644Z,992.57
2016-11-13T13:25:18.335Z,992.55
2016-11-13T13:26:27.036Z,992.55
2016-11-13T13:27:35.726Z,992.59
2016-11-13T13:28:44.418Z,992.63
2016-11-13T13:29:53.112Z,992.61
2016-11-13T13:31:01.803Z,992.62
2016-11-13T13:32:10.498Z,992.62
2016-11-13T13:33:19.533Z,992.62
2016-11-13T13:34:28.223Z,992.64
2016-11-13T13:35:36.912Z,992.67
2016-11-13T13:36:45.604Z,992.7
2016-11-13T13:37:54.329Z,992.7
2016-11-13T13:39:03.020Z,992.69
2016-11-13T13:40:11.715Z,992.71
2016-11-13T13:41:20.404Z,992.69
2016-11-13T13:42:29.094Z,992.69
2016-11-13T13:43:37.790Z,992.72
2016-11-13T13:44:46.480Z,992.73
2016-11-13T13:45:55.175Z,992.81
2016-11-13T13:47:03.869Z,992.82
2016-11-13T13:48:12.596Z,992.82
2016-11-13T13:49:21.293Z,992.83
2016-11-13T13:50:29.983Z,992.83
2016-11-13T13:51:38.678Z,992.79
2016-11-13T13:52:47.371Z,992.81
2016-11-13T13:53:56.061Z,992.82
2016-11-13T13:55:04.752Z,992.82
2016-11-13T13:56:13.469Z,992.87
2016-11-13T13:57:22.158Z,992.86
2016-11-13T13:58:31.163Z,992.83
2016-11-13T13:59:39.858Z,992.82
2016-11-13T14:00:48.552Z,992.81
2016-11-13T14:01:57.243Z,992.85
2016-11-13T14:03:05.935Z,992.9
2016-11-13T14:04:14.628Z,992.92
2016-11-13T14:05:23.321Z,992.88
2016-11-13T14:06:32.018Z,992.86
2016-11-13T14:07:40.746Z,992.91
2016-11-13T14:08:49.441Z,992.88
2016-11-13T14:09:58.136Z,992.9
2016-11-13T14:11:06.843Z,992.9
2016-11-13T14:12:15.537Z,992.93
2016-11-13T14:13:24.226Z,992.93
2016-11-13T14:14:32.919Z,992.92
2016-11-13T14:15:41.610Z,992.98
2016-11-13T14:16:50.311Z,992.98
2016-11-13T14:17:59.006Z,992.97
2016-11-13T14:19:07.700Z,992.96
2016-11-13T14:20:16.393Z,992.98